Time;durP1;ratioP1;P1;durP2;ratioP2;P2;SDS_P1;SDS_P2;PMS_P1;PMS_P2;Temp;Humidity;BMP_temperature;BMP_pressure;BME280_temperature;BME280_humidity;BME280_pressure;Samples;Min_cycle;Max_cycle;Signal;HPM_P1;HPM_P2
2022/11/18 00:00:27;;;;;;;12.67;12.10;;;10.40;99.90;;;;;;10361148;28;20323;-80
2022/11/18 00:05:30;;;;;;;13.03;12.40;;;10.50;99.90;;;;;;10346241;28;20286;-81
2022/11/18 00:10:32;;;;;;;12.10;11.70;;;10.50;99.90;;;;;;10361850;28;20212;-82
2022/11/18 00:15:37;;;;;;;12.90;12.30;;;10.50;99.90;;;;;;10344976;28;20253;-80
2022/11/18 00:20:42;;;;;;;11.30;10.80;;;10.50;99.90;;;;;;10372323;28;20218;-81
2022/11/18 00:25:44;;;;;;;14.20;13.50;;;10.50;99.90;;;;;;10359807;28;20222;-81
2022/11/18 00:30:46;;;;;;;14.87;14.07;;;10.60;99.90;;;;;;10385215;28;20264;-80
2022/11/18 00:35:57;;;;;;;17.20;16.10;;;10.50;99.90;;;;;;10369279;28;20619;-82
2022/11/18 00:41:00;;;;;;;12.50;12.00;;;10.50;99.90;;;;;;10379593;28;20190;-83
2022/11/18 00:46:03;;;;;;;12.83;12.10;;;10.60;99.90;;;;;;10358556;28;20202;-81
2022/11/18 00:51:18;;;;;;;13.07;12.47;;;10.50;99.90;;;;;;10360193;28;20714;-80
2022/11/18 00:56:21;;;;;;;13.77;13.17;;;10.50;99.90;;;;;;10377778;28;20538;-81
2022/11/18 01:01:23;;;;;;;11.97;11.47;;;10.50;99.90;;;;;;10344383;28;20213;-83
2022/11/18 01:06:26;;;;;;;11.40;10.90;;;10.30;99.90;;;;;;10338620;28;20210;-81
2022/11/18 01:16:50;;;;;;;11.50;11.00;;;10.30;99.90;;;;;;10345250;28;20194;-84
2022/11/18 01:21:55;;;;;;;10.97;10.50;;;10.20;99.90;;;;;;10366101;28;20217;-82
2022/11/18 01:27:01;;;;;;;11.10;10.60;;;10.20;99.90;;;;;;10363882;28;20682;-83
2022/11/18 01:32:03;;;;;;;11.77;11.17;;;10.10;99.90;;;;;;10348180;28;20233;-84
2022/11/18 01:37:06;;;;;;;13.37;12.77;;;10.10;99.90;;;;;;10368512;28;20202;-83
2022/11/18 01:42:14;;;;;;;12.80;12.00;;;10.10;99.90;;;;;;10364659;28;20644;-84
2022/11/18 01:47:17;;;;;;;12.03;11.53;;;10.10;99.90;;;;;;10388180;28;20298;-84
2022/11/18 01:52:21;;;;;;;13.90;13.10;;;10.10;99.90;;;;;;10345861;28;20288;-82
2022/11/18 01:57:26;;;;;;;15.30;14.20;;;10.10;99.90;;;;;;10380821;28;20297;-82
2022/11/18 02:02:32;;;;;;;12.40;11.80;;;10.10;99.90;;;;;;10377153;28;20764;-82
2022/11/18 02:07:39;;;;;;;12.27;11.77;;;10.10;99.90;;;;;;10386240;28;20634;-82
2022/11/18 02:12:41;;;;;;;11.80;11.20;;;10.10;99.90;;;;;;10381251;28;20214;-82
2022/11/18 02:17:53;;;;;;;12.17;11.57;;;10.10;99.90;;;;;;10363566;28;20254;-82
2022/11/18 02:23:32;;;;;;;12.00;11.60;;;10.10;99.90;;;;;;10365204;28;20214;-82
2022/11/18 02:28:39;;;;;;;13.27;12.47;;;10.10;99.90;;;;;;10333109;28;20234;-81
2022/11/18 02:33:50;;;;;;;13.57;12.67;;;10.10;99.90;;;;;;10354938;28;20241;-81
2022/11/18 02:38:55;;;;;;;13.40;12.70;;;10.10;99.90;;;;;;10340234;28;20205;-81
2022/11/18 02:44:03;;;;;;;13.13;12.47;;;10.10;99.90;;;;;;10371500;28;20634;-81
2022/11/18 02:49:12;;;;;;;13.57;12.97;;;10.10;99.90;;;;;;10371714;28;20590;-81
2022/11/18 02:54:17;;;;;;;13.90;13.30;;;10.10;99.90;;;;;;10353029;28;20687;-81
2022/11/18 02:59:19;;;;;;;14.00;13.20;;;10.10;99.90;;;;;;10372358;28;20186;-81
2022/11/18 03:04:25;;;;;;;13.60;13.00;;;10.10;99.90;;;;;;10338261;28;20215;-82
2022/11/18 03:09:31;;;;;;;15.00;14.10;;;10.20;99.90;;;;;;10353026;28;20454;-81
2022/11/18 03:14:42;;;;;;;14.70;13.90;;;10.40;99.90;;;;;;10355794;28;20245;-81
2022/11/18 03:20:03;;;;;;;14.30;13.70;;;10.40;99.90;;;;;;10356390;28;20249;-82
2022/11/18 03:25:10;;;;;;;13.70;13.10;;;10.30;99.90;;;;;;10373978;28;20214;-82
2022/11/18 03:30:16;;;;;;;14.20;13.60;;;10.30;99.90;;;;;;10347746;28;20273;-82
2022/11/18 03:35:24;;;;;;;13.60;13.00;;;10.30;99.90;;;;;;10378343;28;20218;-80
2022/11/18 03:40:30;;;;;;;14.20;13.50;;;10.30;99.90;;;;;;10380189;28;20187;-81
2022/11/18 03:45:37;;;;;;;14.20;13.60;;;10.30;99.90;;;;;;10369849;28;20214;-80
2022/11/18 03:50:45;;;;;;;14.37;13.67;;;10.40;99.90;;;;;;10360606;28;20229;-80
2022/11/18 03:55:52;;;;;;;14.30;13.60;;;10.40;99.90;;;;;;10344753;28;20222;-81
2022/11/18 04:00:59;;;;;;;14.70;13.90;;;10.30;99.90;;;;;;10362513;28;20183;-82
2022/11/18 04:06:09;;;;;;;16.30;15.30;;;10.40;99.90;;;;;;10380043;28;20201;-80
2022/11/18 04:16:39;;;;;;;14.60;13.80;;;10.40;99.90;;;;;;10379182;28;20194;-80
2022/11/18 04:21:43;;;;;;;15.40;14.70;;;10.40;99.90;;;;;;10360966;28;20218;-81
2022/11/18 04:26:45;;;;;;;15.00;14.30;;;10.40;99.90;;;;;;10362504;28;20500;-81
2022/11/18 04:31:47;;;;;;;15.40;14.70;;;10.40;99.90;;;;;;10381026;28;20313;-80
2022/11/18 04:36:51;;;;;;;19.00;17.90;;;10.40;99.90;;;;;;10379351;28;20221;-81
2022/11/18 04:41:55;;;;;;;13.90;13.17;;;10.40;99.90;;;;;;10361066;28;20607;-80
2022/11/18 04:46:59;;;;;;;12.17;11.67;;;10.40;99.90;;;;;;10361079;28;20230;-80
2022/11/18 04:52:03;;;;;;;14.57;13.97;;;10.30;99.90;;;;;;10344036;28;20594;-81
2022/11/18 04:57:05;;;;;;;16.00;15.30;;;10.20;99.90;;;;;;10344716;28;20282;-81
2022/11/18 05:02:07;;;;;;;15.10;14.30;;;10.20;99.90;;;;;;10360965;28;20884;-79
2022/11/18 05:07:14;;;;;;;14.87;14.17;;;10.20;99.90;;;;;;10356898;28;20667;-80
2022/11/18 05:17:36;;;;;;;15.77;15.07;;;10.10;99.90;;;;;;10344100;28;20730;-81
2022/11/18 05:22:39;;;;;;;14.90;14.30;;;10.10;99.90;;;;;;10344850;28;20238;-81
2022/11/18 05:27:42;;;;;;;12.80;12.30;;;10.00;99.90;;;;;;10375910;28;20202;-79
2022/11/18 05:32:44;;;;;;;12.40;11.90;;;10.00;99.90;;;;;;10343476;28;20312;-80
2022/11/18 05:37:47;;;;;;;14.00;13.40;;;9.90;99.90;;;;;;10373719;28;20697;-79
2022/11/18 05:48:12;;;;;;;13.53;13.03;;;9.80;99.90;;;;;;10379274;28;20218;-80
2022/11/18 05:53:16;;;;;;;14.20;13.60;;;9.80;99.90;;;;;;10380283;28;20608;-80
2022/11/18 05:58:18;;;;;;;13.23;12.73;;;9.80;99.90;;;;;;10364647;28;20291;-79
2022/11/18 06:03:24;;;;;;;14.77;14.17;;;9.70;99.90;;;;;;10364722;28;20218;-79
2022/11/18 06:08:35;;;;;;;9.57;9.27;;;9.70;99.90;;;;;;10365702;28;20234;-79
2022/11/18 06:13:47;;;;;;;15.17;14.57;;;9.70;99.90;;;;;;10353054;28;20313;-79
2022/11/18 06:18:49;;;;;;;14.20;13.60;;;9.70;99.90;;;;;;10341938;28;20206;-79
2022/11/18 06:23:53;;;;;;;14.60;14.00;;;9.70;99.90;;;;;;10372862;28;20682;-79
2022/11/18 06:28:56;;;;;;;10.80;10.40;;;9.70;99.90;;;;;;10375614;28;20237;-79
2022/11/18 06:33:58;;;;;;;14.60;13.97;;;9.70;99.90;;;;;;10343246;28;20215;-80
2022/11/18 06:39:04;;;;;;;14.37;13.67;;;9.80;99.90;;;;;;10360779;28;20210;-80
2022/11/18 06:44:06;;;;;;;15.30;14.60;;;9.70;99.90;;;;;;10360391;28;20217;-79
2022/11/18 06:49:08;;;;;;;12.10;11.50;;;9.70;99.90;;;;;;10379190;28;20297;-79
2022/11/18 06:54:12;;;;;;;15.50;14.80;;;9.70;99.90;;;;;;10361712;28;20309;-79
2022/11/18 06:59:20;;;;;;;10.20;9.80;;;9.70;99.90;;;;;;10379079;28;20645;-79
2022/11/18 07:04:22;;;;;;;15.53;14.80;;;9.70;99.90;;;;;;10383980;28;20226;-80
2022/11/18 07:09:25;;;;;;;15.07;14.37;;;9.80;99.90;;;;;;10387953;28;20210;-80
2022/11/18 07:14:28;;;;;;;11.47;10.50;;;9.70;99.90;;;;;;10396632;28;20219;-79
2022/11/18 07:19:30;;;;;;;14.13;13.53;;;9.70;99.90;;;;;;10366194;28;20199;-79
2022/11/18 07:24:33;;;;;;;15.90;15.20;;;9.70;99.90;;;;;;10366149;28;20741;-79
2022/11/18 07:29:35;;;;;;;18.93;17.63;;;9.80;99.90;;;;;;10367376;28;20211;-79
2022/11/18 07:34:37;;;;;;;16.67;15.90;;;9.80;99.90;;;;;;10366391;28;20766;-79
2022/11/18 07:39:40;;;;;;;15.40;14.70;;;9.80;99.90;;;;;;10350357;28;20286;-79
2022/11/18 07:44:42;;;;;;;14.80;14.10;;;9.90;99.90;;;;;;10367478;28;20238;-79
2022/11/18 07:49:44;;;;;;;13.23;12.40;;;9.90;99.90;;;;;;10348618;28;20221;-78
2022/11/18 07:54:50;;;;;;;14.20;13.60;;;9.90;99.90;;;;;;10367682;23;20286;-81
2022/11/18 07:59:52;;;;;;;8.50;8.20;;;9.90;99.90;;;;;;10337934;28;20647;-82
2022/11/18 08:04:54;;;;;;;14.80;14.10;;;9.90;99.90;;;;;;10324477;28;20223;-82
2022/11/18 08:09:57;;;;;;;13.97;13.27;;;10.00;99.90;;;;;;10325422;28;20220;-81
2022/11/18 08:15:00;;;;;;;14.40;13.70;;;10.00;99.90;;;;;;10341022;28;20235;-81
2022/11/18 08:20:02;;;;;;;14.70;14.03;;;10.10;99.90;;;;;;10308533;28;20203;-82
2022/11/18 08:25:06;;;;;;;12.43;11.93;;;10.10;99.90;;;;;;10321914;28;20223;-82
2022/11/18 08:30:10;;;;;;;12.50;12.00;;;10.20;99.90;;;;;;10321684;28;20270;-80
2022/11/18 08:35:12;;;;;;;14.27;13.67;;;10.20;99.90;;;;;;10319280;28;20643;-81
2022/11/18 08:40:16;;;;;;;13.13;12.63;;;10.20;99.90;;;;;;10336806;28;20687;-80
2022/11/18 08:45:18;;;;;;;13.13;12.53;;;10.30;99.90;;;;;;10322967;28;20651;-82
2022/11/18 08:50:20;;;;;;;14.83;14.13;;;10.20;99.90;;;;;;10341356;28;20263;-82
2022/11/18 08:55:24;;;;;;;14.07;13.47;;;10.30;99.90;;;;;;10322137;28;20222;-79
2022/11/18 09:00:26;;;;;;;14.83;14.20;;;10.40;99.90;;;;;;10345560;28;20222;-78
2022/11/18 09:05:28;;;;;;;13.13;12.53;;;10.40;99.90;;;;;;10335171;28;20227;-78
2022/11/18 09:10:33;;;;;;;13.90;13.30;;;10.50;99.90;;;;;;10322509;28;20230;-79
2022/11/18 09:15:35;;;;;;;14.30;13.50;;;10.50;99.90;;;;;;10338054;28;21447;-79
2022/11/18 09:20:38;;;;;;;14.23;13.60;;;10.60;99.90;;;;;;10318765;28;20302;-78
2022/11/18 09:25:41;;;;;;;19.83;18.53;;;10.60;99.90;;;;;;10331594;28;20249;-78
2022/11/18 09:30:43;;;;;;;14.70;14.00;;;10.60;99.90;;;;;;10320700;28;20242;-80
2022/11/18 09:35:45;;;;;;;15.10;14.40;;;10.60;99.90;;;;;;10322033;28;20208;-79
2022/11/18 09:41:00;;;;;;;14.30;13.60;;;10.60;99.90;;;;;;10338861;28;20318;-80
2022/11/18 09:46:15;;;;;;;13.90;13.30;;;10.60;99.90;;;;;;10346231;28;20219;-80
2022/11/18 09:51:17;;;;;;;13.50;12.97;;;10.60;99.90;;;;;;10345057;28;20215;-79
2022/11/18 09:56:22;;;;;;;13.33;12.73;;;10.60;99.90;;;;;;10327164;28;20218;-79
2022/11/18 10:01:29;;;;;;;15.47;14.67;;;10.60;99.90;;;;;;10337586;28;20202;-79
2022/11/18 10:06:33;;;;;;;14.57;13.87;;;10.60;99.90;;;;;;10313778;28;20202;-79
2022/11/18 10:11:46;;;;;;;14.00;13.40;;;10.70;99.90;;;;;;10321941;28;20218;-79
2022/11/18 10:16:59;;;;;;;15.47;14.70;;;10.70;99.90;;;;;;10317572;28;20198;-79
2022/11/18 10:22:16;;;;;;;15.80;15.00;;;10.80;99.90;;;;;;10312313;28;20220;-80
2022/11/18 10:27:20;;;;;;;15.17;14.30;;;10.80;99.90;;;;;;10329552;28;20465;-79
2022/11/18 10:32:23;;;;;;;13.43;12.83;;;10.80;99.90;;;;;;10308990;28;20233;-79
2022/11/18 10:37:27;;;;;;;14.20;13.50;;;10.90;99.90;;;;;;10332457;28;20206;-81
2022/11/18 10:42:40;;;;;;;14.10;13.40;;;10.90;99.90;;;;;;10317189;28;20689;-79
2022/11/18 10:47:42;;;;;;;15.07;14.30;;;11.00;99.90;;;;;;10314984;28;20286;-80
2022/11/18 10:52:52;;;;;;;10.67;10.17;;;11.10;99.90;;;;;;10315055;28;20223;-80
2022/11/18 10:58:01;;;;;;;16.77;15.77;;;11.30;99.90;;;;;;10317309;28;20204;-80
2022/11/18 11:03:22;;;;;;;14.60;14.00;;;11.30;99.90;;;;;;10319842;28;20223;-80
2022/11/18 11:08:24;;;;;;;16.50;15.73;;;11.20;99.90;;;;;;10314401;28;20202;-80
2022/11/18 11:13:31;;;;;;;15.73;14.90;;;11.10;99.90;;;;;;10301053;28;20226;-80
2022/11/18 11:18:41;;;;;;;13.63;12.83;;;11.10;99.90;;;;;;10332891;28;20206;-80
2022/11/18 11:23:44;;;;;;;17.27;16.17;;;11.00;99.90;;;;;;10312444;28;20218;-82
2022/11/18 11:28:58;;;;;;;17.47;16.27;;;11.00;99.90;;;;;;10337324;28;20210;-80
2022/11/18 11:34:10;;;;;;;16.67;15.80;;;11.10;99.90;;;;;;10304160;28;20223;-80
2022/11/18 11:39:37;;;;;;;11.23;10.53;;;11.20;99.90;;;;;;10330798;28;20191;-79
2022/11/18 11:44:53;;;;;;;16.60;15.80;;;11.30;99.90;;;;;;10324942;28;20211;-78
2022/11/18 11:50:01;;;;;;;15.50;14.70;;;11.40;99.90;;;;;;10310429;28;20226;-78
2022/11/18 11:55:15;;;;;;;13.87;13.27;;;11.40;99.90;;;;;;10317229;28;20730;-78
2022/11/18 12:00:20;;;;;;;14.80;13.80;;;11.40;99.90;;;;;;10316392;28;20199;-81
2022/11/18 12:05:29;;;;;;;15.30;14.60;;;11.40;99.90;;;;;;10338893;28;20290;-80
2022/11/18 12:10:40;;;;;;;9.03;8.53;;;11.40;99.90;;;;;;10340229;28;20570;-81
2022/11/18 12:15:53;;;;;;;15.43;14.70;;;11.50;99.90;;;;;;10322400;28;20219;-79
2022/11/18 12:20:55;;;;;;;15.53;14.80;;;11.50;99.90;;;;;;10322139;28;20195;-79
2022/11/18 12:26:06;;;;;;;16.57;15.20;;;11.50;99.90;;;;;;10326247;28;20262;-79
2022/11/18 12:31:33;;;;;;;9.37;8.87;;;11.40;99.90;;;;;;10329298;28;20223;-79
2022/11/18 12:36:37;;;;;;;13.93;13.23;;;11.30;99.90;;;;;;10295478;28;20210;-79
2022/11/18 12:47:44;;;;;;;14.17;13.37;;;11.00;99.90;;;;;;10316020;28;20249;-79
2022/11/18 12:52:54;;;;;;;15.20;14.40;;;10.90;99.90;;;;;;10332055;28;20223;-80
2022/11/18 12:57:56;;;;;;;14.70;13.63;;;10.90;99.90;;;;;;10316258;28;20199;-79
2022/11/18 13:03:01;;;;;;;24.57;22.60;;;10.90;99.90;;;;;;10332741;28;20215;-80
2022/11/18 13:08:12;;;;;;;22.00;20.40;;;10.90;99.90;;;;;;10325519;28;20687;-80
2022/11/18 13:13:28;;;;;;;15.60;14.70;;;10.90;99.90;;;;;;10331854;28;20345;-79
2022/11/18 13:18:31;;;;;;;13.67;12.87;;;10.90;99.90;;;;;;10315191;28;20640;-80
2022/11/18 13:23:52;;;;;;;16.33;15.53;;;11.10;99.90;;;;;;10315501;28;20246;-79
2022/11/18 13:29:16;;;;;;;16.40;15.37;;;11.10;99.90;;;;;;10299602;28;20255;-80
2022/11/18 13:34:21;;;;;;;15.97;14.90;;;11.10;99.90;;;;;;10329957;28;20230;-79
2022/11/18 13:39:26;;;;;;;16.60;15.50;;;11.20;99.90;;;;;;10331503;28;20577;-80
2022/11/18 13:44:30;;;;;;;16.20;14.93;;;11.20;99.90;;;;;;10333150;28;20310;-81
2022/11/18 13:49:42;;;;;;;12.40;11.70;;;11.30;99.90;;;;;;10320661;28;20215;-81
2022/11/18 13:54:46;;;;;;;14.60;13.90;;;11.30;99.90;;;;;;10338200;28;20231;-81
2022/11/18 13:59:50;;;;;;;11.97;11.07;;;11.20;99.90;;;;;;10320853;28;20559;-81
2022/11/18 14:04:55;;;;;;;14.27;13.47;;;11.10;99.90;;;;;;10337003;28;20227;-81
2022/11/18 14:10:01;;;;;;;10.20;9.60;;;11.20;99.90;;;;;;10338929;28;20257;-80
2022/11/18 14:15:22;;;;;;;17.77;16.70;;;11.20;99.90;;;;;;10319194;28;20219;-80
2022/11/18 14:20:25;;;;;;;15.73;14.70;;;11.10;99.90;;;;;;10294227;28;20191;-81
2022/11/18 14:25:31;;;;;;;17.03;16.10;;;11.10;99.90;;;;;;10319030;28;20212;-80
2022/11/18 14:30:36;;;;;;;13.40;12.80;;;11.00;99.90;;;;;;10313009;28;20581;-80
2022/11/18 14:35:38;;;;;;;16.60;15.80;;;10.90;99.90;;;;;;10332783;28;20622;-80
2022/11/18 14:40:42;;;;;;;15.60;14.63;;;11.00;99.90;;;;;;10332780;28;20614;-80
2022/11/18 14:45:44;;;;;;;15.00;14.30;;;10.90;99.90;;;;;;10337238;28;20215;-80
2022/11/18 14:50:47;;;;;;;15.67;14.83;;;10.90;99.90;;;;;;10335356;28;20226;-80
2022/11/18 14:55:52;;;;;;;15.60;14.70;;;10.90;99.90;;;;;;10279009;28;20306;-80
2022/11/18 15:00:54;;;;;;;16.00;14.70;;;10.90;99.90;;;;;;10294371;28;20657;-80
2022/11/18 15:05:56;;;;;;;13.43;12.63;;;10.90;99.90;;;;;;10317458;28;20750;-80
2022/11/18 15:11:00;;;;;;;14.43;13.63;;;10.90;99.90;;;;;;10335049;28;20294;-80
2022/11/18 15:16:10;;;;;;;14.23;13.43;;;10.90;99.90;;;;;;10317218;28;20239;-81
2022/11/18 15:21:12;;;;;;;14.00;13.30;;;10.90;99.90;;;;;;10294648;28;20244;-79
2022/11/18 15:26:19;;;;;;;13.80;13.10;;;10.90;99.90;;;;;;10319192;28;20246;-79
2022/11/18 15:31:23;;;;;;;14.47;13.67;;;10.90;99.90;;;;;;10338990;28;20233;-81
2022/11/18 15:36:26;;;;;;;14.00;13.10;;;10.90;99.90;;;;;;10337152;28;20238;-80
2022/11/18 15:41:31;;;;;;;13.57;12.43;;;10.90;99.90;;;;;;10284428;28;20259;-80
2022/11/18 15:46:33;;;;;;;12.73;12.10;;;10.90;99.90;;;;;;10304227;28;20266;-80
2022/11/18 15:51:35;;;;;;;12.37;11.67;;;11.00;99.90;;;;;;10326225;28;20691;-80
2022/11/18 15:56:40;;;;;;;12.80;12.10;;;11.00;99.90;;;;;;10344460;28;20200;-80
2022/11/18 16:01:44;;;;;;;12.17;11.13;;;11.00;99.90;;;;;;10343524;28;20302;-80
2022/11/18 16:06:46;;;;;;;12.40;11.60;;;11.00;99.90;;;;;;10324762;28;20195;-80
2022/11/18 16:17:20;;;;;;;13.17;12.07;;;11.00;99.90;;;;;;10204669;28;20211;-80
2022/11/18 16:22:22;;;;;;;13.00;11.93;;;11.00;99.90;;;;;;10324606;28;20214;-80
2022/11/18 16:27:26;;;;;;;12.50;11.57;;;11.00;99.90;;;;;;10325084;28;20195;-80
2022/11/18 16:32:28;;;;;;;11.33;10.53;;;11.00;99.90;;;;;;10326852;28;20231;-81
2022/11/18 16:37:30;;;;;;;12.73;11.73;;;11.00;99.90;;;;;;10313551;28;20233;-80
2022/11/18 16:42:33;;;;;;;12.77;11.87;;;11.00;99.90;;;;;;10297180;28;20226;-80
2022/11/18 16:47:37;;;;;;;13.50;12.50;;;11.00;99.90;;;;;;10329498;28;20755;-80
2022/11/18 16:52:39;;;;;;;12.53;11.63;;;10.90;99.90;;;;;;10336734;28;20215;-79
2022/11/18 16:57:42;;;;;;;11.00;10.20;;;10.90;99.90;;;;;;10323883;28;20286;-79
2022/11/18 17:02:44;;;;;;;10.50;9.60;;;10.90;99.90;;;;;;10336861;28;20242;-80
2022/11/18 17:07:46;;;;;;;11.27;10.30;;;10.80;99.90;;;;;;10330781;28;20642;-79
2022/11/18 17:12:50;;;;;;;14.30;11.27;;;10.80;99.90;;;;;;10320079;28;20231;-82
2022/11/18 17:17:52;;;;;;;11.87;10.83;;;10.80;99.90;;;;;;10327095;28;20657;-82
2022/11/18 17:22:54;;;;;;;15.50;14.00;;;10.80;99.90;;;;;;10326048;28;20218;-80
2022/11/18 17:27:57;;;;;;;10.47;9.50;;;10.80;99.90;;;;;;10294708;28;20254;-80
2022/11/18 17:32:59;;;;;;;10.93;10.00;;;10.80;99.90;;;;;;10318296;28;20575;-79
2022/11/18 17:38:01;;;;;;;10.63;9.83;;;10.80;99.90;;;;;;10314653;28;20199;-80
2022/11/18 17:43:05;;;;;;;10.30;9.43;;;10.80;99.90;;;;;;10317718;28;20235;-81
2022/11/18 17:48:07;;;;;;;8.77;7.97;;;10.70;99.90;;;;;;10334232;28;20242;-81
2022/11/18 17:53:09;;;;;;;12.50;10.10;;;10.70;99.90;;;;;;10318591;28;20265;-79
2022/11/18 17:58:12;;;;;;;9.70;9.00;;;10.70;99.90;;;;;;10314951;28;20203;-81
2022/11/18 18:03:15;;;;;;;10.33;9.53;;;10.70;99.90;;;;;;10333171;28;20795;-82
2022/11/18 18:08:17;;;;;;;10.90;9.00;;;10.60;99.90;;;;;;10315281;28;20195;-81
2022/11/18 18:18:51;;;;;;;11.73;10.10;;;10.60;99.90;;;;;;10220698;28;20210;-82
2022/11/18 18:23:54;;;;;;;8.43;7.60;;;10.60;99.90;;;;;;10310944;28;20207;-80
2022/11/18 18:28:58;;;;;;;7.97;6.77;;;10.60;99.90;;;;;;10277146;28;20204;-82
2022/11/18 18:34:00;;;;;;;8.77;7.77;;;10.60;99.90;;;;;;10300994;28;20314;-82
2022/11/18 18:39:03;;;;;;;8.60;7.90;;;10.50;99.90;;;;;;10331414;28;20191;-81
2022/11/18 18:44:06;;;;;;;8.57;7.83;;;10.50;99.90;;;;;;10327089;28;20238;-82
2022/11/18 18:49:12;;;;;;;6.27;5.83;;;10.40;99.90;;;;;;10336981;28;20209;-81
2022/11/18 18:54:15;;;;;;;8.20;7.50;;;10.40;99.90;;;;;;10317099;28;20598;-82
2022/11/18 18:59:19;;;;;;;7.13;6.53;;;10.30;99.90;;;;;;10293625;28;20196;-79
2022/11/18 19:04:21;;;;;;;7.80;7.20;;;10.20;99.90;;;;;;10320590;28;20281;-80
2022/11/18 19:09:23;;;;;;;5.90;5.50;;;10.20;99.90;;;;;;10340141;28;20206;-80
2022/11/18 19:14:27;;;;;;;11.67;7.50;;;10.10;99.90;;;;;;10323747;28;20227;-80
2022/11/18 19:24:48;;;;;;;6.53;6.10;;;10.10;99.90;;;;;;10296721;28;20216;-80
2022/11/18 19:29:51;;;;;;;7.20;6.80;;;10.20;99.90;;;;;;10324454;28;20226;-82
2022/11/18 19:34:54;;;;;;;7.00;6.60;;;10.20;99.90;;;;;;10324626;28;20305;-82
2022/11/18 19:39:57;;;;;;;6.40;6.00;;;10.30;99.90;;;;;;10325066;28;20199;-80
2022/11/18 19:45:01;;;;;;;6.20;5.80;;;10.30;99.90;;;;;;10319947;28;20635;-79
2022/11/18 19:50:03;;;;;;;7.30;6.60;;;10.30;99.90;;;;;;10320531;28;20229;-80
2022/11/18 19:55:06;;;;;;;6.40;6.00;;;10.30;99.90;;;;;;10426708;23;20707;-80
2022/11/18 20:00:11;;;;;;;5.60;5.30;;;10.30;99.90;;;;;;10463219;28;20243;-79
2022/11/18 20:10:35;;;;;;;5.47;5.17;;;10.30;99.90;;;;;;10431649;28;20596;-80
2022/11/18 20:15:38;;;;;;;6.17;5.87;;;10.30;99.90;;;;;;10454754;28;20221;-80
2022/11/18 20:20:40;;;;;;;7.80;7.10;;;10.40;99.90;;;;;;10469376;28;20223;-80
2022/11/18 20:25:42;;;;;;;15.83;13.30;;;10.40;99.90;;;;;;10449594;28;20267;-79
2022/11/18 20:30:47;;;;;;;5.73;5.37;;;10.40;99.90;;;;;;10467949;28;20205;-80
2022/11/18 20:35:49;;;;;;;5.93;5.60;;;10.40;99.90;;;;;;10448488;28;20232;-79
2022/11/18 20:40:51;;;;;;;3.73;3.53;;;10.40;99.90;;;;;;10451732;28;20252;-80
2022/11/18 20:45:56;;;;;;;5.30;5.00;;;10.30;99.90;;;;;;10454193;28;20289;-80
2022/11/18 20:50:58;;;;;;;4.43;4.13;;;10.30;99.90;;;;;;10468843;28;20205;-80
2022/11/18 20:56:00;;;;;;;5.10;4.80;;;10.30;99.90;;;;;;10449421;28;20225;-80
2022/11/18 21:01:10;;;;;;;5.20;4.90;;;10.20;99.90;;;;;;10434096;28;20228;-80
2022/11/18 21:06:13;;;;;;;10.97;10.00;;;10.20;99.90;;;;;;10469247;28;20264;-80
2022/11/18 21:11:16;;;;;;;7.97;6.03;;;10.20;99.90;;;;;;10461781;28;20267;-80
2022/11/18 21:16:20;;;;;;;5.23;4.87;;;10.20;99.90;;;;;;10463010;28;20292;-79
2022/11/18 21:26:42;;;;;;;4.93;4.53;;;10.20;99.90;;;;;;10464054;28;20292;-79
2022/11/18 21:31:46;;;;;;;5.03;4.77;;;10.20;99.90;;;;;;10460997;28;20237;-80
2022/11/18 21:36:48;;;;;;;4.90;4.60;;;10.20;99.90;;;;;;10460099;28;20189;-80
2022/11/18 21:41:51;;;;;;;5.20;4.90;;;10.20;99.90;;;;;;10460961;28;20204;-80
2022/11/18 21:46:54;;;;;;;6.00;5.60;;;10.20;99.90;;;;;;10461862;28;20276;-80
2022/11/18 21:51:56;;;;;;;5.67;5.27;;;10.30;99.90;;;;;;10462190;28;20216;-78
2022/11/18 21:56:58;;;;;;;5.60;5.20;;;10.30;99.90;;;;;;10468074;28;20196;-78
2022/11/18 22:02:01;;;;;;;4.70;4.50;;;10.30;99.90;;;;;;10449375;28;20267;-79
2022/11/18 22:07:04;;;;;;;4.73;4.43;;;10.30;99.90;;;;;;10447595;28;20224;-80
2022/11/18 22:12:07;;;;;;;23.13;20.73;;;10.30;99.90;;;;;;10449154;28;20209;-79
2022/11/18 22:17:10;;;;;;;14.87;13.53;;;10.30;99.90;;;;;;10460295;28;20199;-79
2022/11/18 22:22:12;;;;;;;5.90;5.60;;;10.30;99.90;;;;;;10448719;28;20243;-79
2022/11/18 22:27:14;;;;;;;5.60;5.20;;;10.40;99.90;;;;;;10456371;28;20193;-80
2022/11/18 22:32:18;;;;;;;5.40;5.20;;;10.30;99.90;;;;;;10449497;28;20221;-79
2022/11/18 22:37:20;;;;;;;6.10;5.70;;;10.20;99.90;;;;;;10466684;28;20259;-79
2022/11/18 22:47:43;;;;;;;7.83;7.30;;;10.10;99.90;;;;;;10431486;28;20193;-79
2022/11/18 22:52:45;;;;;;;7.83;7.33;;;10.10;99.90;;;;;;10465272;28;20217;-80
2022/11/18 22:57:47;;;;;;;8.87;8.17;;;10.00;99.90;;;;;;10438927;28;20662;-80
2022/11/18 23:02:51;;;;;;;7.80;7.30;;;10.00;99.90;;;;;;10430421;28;20232;-81
2022/11/18 23:07:53;;;;;;;6.93;6.53;;;10.00;99.90;;;;;;10466875;28;20200;-81
2022/11/18 23:18:16;;;;;;;7.37;6.97;;;10.00;99.90;;;;;;10426076;28;20208;-79
2022/11/18 23:23:18;;;;;;;7.27;6.87;;;10.00;99.90;;;;;;10448971;28;20240;-80
2022/11/18 23:28:20;;;;;;;8.60;8.00;;;10.00;99.90;;;;;;10450341;28;20675;-80
2022/11/18 23:33:24;;;;;;;7.93;7.40;;;10.10;99.90;;;;;;10435636;28;20217;-80
2022/11/18 23:38:27;;;;;;;8.90;8.40;;;10.10;99.90;;;;;;10440965;28;20197;-80
2022/11/18 23:43:30;;;;;;;8.60;8.00;;;10.20;99.90;;;;;;10444754;28;20210;-78
2022/11/18 23:48:35;;;;;;;9.77;9.17;;;10.20;99.90;;;;;;10450908;28;20197;-80
2022/11/18 23:53:38;;;;;;;16.10;14.00;;;10.10;99.90;;;;;;10470342;28;20217;-79
2022/11/18 23:58:42;;;;;;;9.10;8.43;;;10.10;99.90;;;;;;10424694;28;20194;-81
